Joan Turecamo — WDC7564 — position and weather

sailwx.info

Track history (hours):
 
Tides and Currents Weather Stations Pressure Air Temp Water Temp Dewpoint Dewpoint Depression Visibility Wind Speed Wind Dir Waves Ship Positions

Joan Turecamo

Owner: Moran Towing Corporation, New Canaan, CT. More information available from US FCC via Universal Licensing System and Coast Guard Vessel Documentation Center.

Last reported at 2018-Jun-22 16:59 UTC. Time now 2018-Jun-22 17:09 UTC.
Position N 40°38' W 074°08'.

Length 34 m; draft 4.6 m.

Type: Tug. MMSI: 367073370.

Date/timePositionNaut miles runAvg speedWind from/ knotsBaromVisibWave heightAir tempDewpointWater temp
2018-Jun-22 16:59N 40°38' W 074°08'0 0.0
2018-Jun-22 16:29N 40°38' W 074°08'0 0.0
2018-Jun-22 15:59N 40°38' W 074°08'0 0.0
2018-Jun-22 15:23N 40°38' W 074°08'0 0.0
2018-Jun-22 14:59N 40°38' W 074°08'0 0.0
2018-Jun-22 14:29N 40°38' W 074°08'0 0.0
2018-Jun-22 13:59N 40°38' W 074°08'0 0.0
2018-Jun-22 13:26N 40°38' W 074°08'0 0.0
2018-Jun-22 12:56N 40°38' W 074°08'0 0.0
2018-Jun-22 12:29N 40°38' W 074°08'0 0.0
2018-Jun-22 11:59N 40°38' W 074°08'0 0.0
2018-Jun-22 11:17N 40°38' W 074°08'0 0.0
2018-Jun-22 10:56N 40°38' W 074°08'0 0.0
2018-Jun-22 10:26N 40°38' W 074°08'2 3.5
2018-Jun-22 10:00N 40°40' W 074°09'0 0.4
2018-Jun-22 09:30N 40°39' W 074°09'2 3.5
2018-Jun-22 09:00N 40°39' W 074°07'0 0.0
2018-Jun-22 08:30N 40°39' W 074°07'1 2.3
2018-Jun-22 08:00N 40°39' W 074°05'2 3.1
2018-Jun-22 07:31N 40°38' W 074°04'3 6.5
2018-Jun-22 07:00N 40°39' W 074°08'0 0.1
2018-Jun-22 06:28N 40°38' W 074°08'0 0.0
2018-Jun-22 05:57N 40°38' W 074°08'0 0.0
2018-Jun-22 05:27N 40°38' W 074°08'0 0.0
2018-Jun-22 04:57N 40°38' W 074°08'0 0.0
2018-Jun-22 04:27N 40°38' W 074°08'0 0.0
2018-Jun-22 03:57N 40°38' W 074°08'0 0.0
2018-Jun-22 03:15N 40°38' W 074°08'0 0.0
2018-Jun-22 03:00N 40°38' W 074°08'3 4.5
2018-Jun-22 02:22N 40°41' W 074°08'0 0.4
2018-Jun-22 02:01N 40°42' W 074°08'3 5.9
2018-Jun-22 01:31N 40°39' W 074°08'0 0.7
2018-Jun-22 01:00N 40°38' W 074°08'0 0.0
2018-Jun-22 00:30N 40°38' W 074°08'0 0.0
2018-Jun-22 00:00N 40°38' W 074°08'0 0.0
2018-Jun-21 23:24N 40°38' W 074°08'0 0.0
2018-Jun-21 23:00N 40°38' W 074°08'0 0.0
2018-Jun-21 22:30N 40°38' W 074°08'0 0.0
2018-Jun-21 22:00N 40°38' W 074°08'0 0.0
2018-Jun-21 21:30N 40°38' W 074°08'0 0.7
2018-Jun-21 21:00N 40°39' W 074°08'3 6.0
2018-Jun-21 20:27N 40°42' W 074°09'0 0.3
2018-Jun-21 19:59N 40°42' W 074°09'0 0.0
2018-Jun-21 19:29N 40°42' W 074°09'0 0.0
2018-Jun-21 18:59N 40°42' W 074°09'0 0.0
2018-Jun-21 18:23N 40°42' W 074°09'0 0.0
2018-Jun-21 17:59N 40°42' W 074°09'0 0.0
2018-Jun-21 17:26N 40°42' W 074°09'0 0.0
2018-Jun-21 16:59N 40°42' W 074°09'0 0.0
2018-Jun-21 16:29N 40°42' W 074°09'0 0.5
2018-Jun-21 15:47N 40°42' W 074°08'1 4.9
2018-Jun-21 15:30N 40°40' W 074°08'2 3.9
2018-Jun-21 15:00N 40°39' W 074°06'4 8.2
2018-Jun-21 14:31N 40°41' W 074°02'1 1.7
2018-Jun-21 14:00N 40°41' W 074°01'2 4.2
2018-Jun-21 13:31N 40°40' W 074°03'4 6.2
2018-Jun-21 12:53N 40°38' W 074°08'0 0.0
2018-Jun-21 12:17N 40°38' W 074°08'0 0.0
2018-Jun-21 11:56N 40°38' W 074°08'0 0.4
2018-Jun-21 11:28N 40°38' W 074°08'0 0.1
2018-Jun-21 11:00N 40°39' W 074°08'5 9.1
2018-Jun-21 10:30N 40°41' W 074°03'510.3
2018-Jun-21 10:00N 40°46' W 074°00'0 0.7
2018-Jun-21 09:31N 40°45' W 074°01'0 0.4
2018-Jun-21 09:00N 40°46' W 074°00'3 6.8
2018-Jun-21 08:30N 40°42' W 074°01'5 9.8
2018-Jun-21 08:00N 40°39' W 074°06'2 4.4
2018-Jun-21 07:30N 40°40' W 074°08'2 3.8
2018-Jun-21 07:00N 40°39' W 074°09'2 5.0
2018-Jun-21 06:30N 40°39' W 074°06'2 4.6
2018-Jun-21 06:00N 40°38' W 074°03'0 0.9
2018-Jun-21 05:30N 40°38' W 074°03'3 6.1
2018-Jun-21 05:00N 40°39' W 074°07'1 1.4
2018-Jun-21 04:28N 40°38' W 074°08'0 0.0
2018-Jun-21 03:55N 40°38' W 074°08'0 0.0
2018-Jun-21 03:28N 40°38' W 074°08'0 0.0
2018-Jun-21 02:55N 40°38' W 074°08'0 0.0
2018-Jun-21 02:28N 40°38' W 074°08'0 0.0
2018-Jun-21 01:58N 40°38' W 074°08'0 0.0
2018-Jun-21 01:28N 40°38' W 074°08'0 0.0
2018-Jun-21 00:49N 40°38' W 074°08'0 0.0
2018-Jun-21 00:28N 40°38' W 074°08'0 0.0
2018-Jun-20 23:49N 40°38' W 074°08'0 0.0
2018-Jun-20 23:28N 40°38' W 074°08'0 0.0
2018-Jun-20 22:58N 40°38' W 074°08'0 0.0
2018-Jun-20 22:28N 40°38' W 074°08'0 0.0
2018-Jun-20 21:49N 40°38' W 074°08'0 0.0
2018-Jun-20 21:28N 40°38' W 074°08'0 0.0
2018-Jun-20 20:58N 40°38' W 074°08'0 0.0
2018-Jun-20 20:25N 40°38' W 074°08'0 0.0
2018-Jun-20 19:56N 40°38' W 074°08'1 2.6
2018-Jun-20 19:31N 40°39' W 074°09'1 2.2
2018-Jun-20 18:55N 40°40' W 074°08'0 1.2
2018-Jun-20 18:30N 40°41' W 074°09'0 0.0
2018-Jun-20 18:01N 40°41' W 074°09'2 4.1
2018-Jun-20 17:29N 40°39' W 074°09'1 1.2
2018-Jun-20 16:50N 40°38' W 074°08'0 0.0
2018-Jun-20 16:27N 40°38' W 074°08'1 2.1
2018-Jun-20 16:00N 40°39' W 074°09'2 2.9
2018-Jun-20 15:13N 40°41' W 074°09'1 3.2
2018-Jun-20 15:00N 40°41' W 074°08'2 4.0
2018-Jun-20 14:31N 40°39' W 074°09'4 7.2
2018-Jun-20 14:01N 40°39' W 074°04'2 4.2
2018-Jun-20 13:30N 40°39' W 074°07'1 1.3
2018-Jun-20 13:00N 40°38' W 074°08'0 0.0
2018-Jun-20 12:30N 40°38' W 074°08'0 0.1
2018-Jun-20 12:00N 40°39' W 074°08'0 0.7
2018-Jun-20 11:30N 40°39' W 074°08'0 0.7
2018-Jun-20 10:59N 40°38' W 074°08'0 0.0
2018-Jun-20 10:29N 40°38' W 074°08'0 0.0
2018-Jun-20 09:59N 40°38' W 074°08'0 0.0
2018-Jun-20 09:11N 40°38' W 074°08'0 0.0
2018-Jun-20 08:59N 40°38' W 074°08'0 0.0
2018-Jun-20 08:29N 40°38' W 074°08'0 0.0
2018-Jun-20 07:59N 40°38' W 074°08'0 0.0
2018-Jun-20 07:29N 40°38' W 074°08'0 0.0
2018-Jun-20 06:47N 40°38' W 074°08'0 0.0
2018-Jun-20 06:29N 40°38' W 074°08'0 0.0
2018-Jun-20 05:59N 40°38' W 074°08'0 0.0
2018-Jun-20 05:29N 40°38' W 074°08'0 0.0
2018-Jun-20 04:53N 40°38' W 074°08'0 0.0
2018-Jun-20 04:23N 40°38' W 074°08'0 0.0
2018-Jun-20 03:59N 40°38' W 074°08'0 0.0
2018-Jun-20 03:29N 40°38' W 074°08'0 0.0
2018-Jun-20 02:59N 40°38' W 074°08'0 0.0
2018-Jun-20 02:29N 40°38' W 074°08'0 0.0
2018-Jun-20 01:53N 40°38' W 074°08'0 0.0
2018-Jun-20 01:30N 40°38' W 074°08'1 1.4
2018-Jun-20 01:00N 40°39' W 074°07'0 0.0
2018-Jun-20 00:30N 40°39' W 074°07'0 0.0
2018-Jun-20 00:00N 40°39' W 074°07'1 2.3
2018-Jun-19 23:31N 40°39' W 074°05'3 5.3
2018-Jun-19 23:00N 40°39' W 074°09'3 5.0
2018-Jun-19 22:26N 40°42' W 074°09'2 4.6
2018-Jun-19 22:00N 40°40' W 074°08'2 3.8
2018-Jun-19 21:29N 40°39' W 074°06'3 6.5
2018-Jun-19 21:01N 40°40' W 074°02'2 3.3
2018-Jun-19 20:30N 40°41' W 074°01'4 7.7
2018-Jun-19 20:01N 40°39' W 074°05'2 3.7
2018-Jun-19 19:23N 40°38' W 074°08'0 0.0
2018-Jun-19 18:53N 40°38' W 074°08'0 0.1
2018-Jun-19 18:26N 40°38' W 074°08'0 0.0
2018-Jun-19 17:53N 40°38' W 074°08'0 0.0
2018-Jun-19 17:29N 40°38' W 074°08'0 0.0
2018-Jun-19 16:59N 40°38' W 074°08'0 0.0
2018-Jun-19 16:29N 40°38' W 074°08'0 0.0
2018-Jun-19 15:59N 40°38' W 074°08'0 0.0
2018-Jun-19 15:29N 40°38' W 074°08'0 0.0
2018-Jun-19 14:59N 40°38' W 074°08'0 0.0
2018-Jun-19 14:29N 40°38' W 074°08'0 0.0
2018-Jun-19 13:59N 40°38' W 074°08'0 0.0
2018-Jun-19 13:26N 40°38' W 074°08'0 0.0
2018-Jun-19 12:59N 40°38' W 074°08'0 0.0
2018-Jun-19 12:29N 40°38' W 074°08'0 0.0
2018-Jun-19 11:59N 40°38' W 074°08'0 0.0
2018-Jun-19 11:29N 40°38' W 074°08'0 0.1
2018-Jun-19 10:59N 40°38' W 074°08'0 0.0
2018-Jun-19 10:29N 40°38' W 074°08'0 0.0
2018-Jun-19 09:59N 40°38' W 074°08'0 0.0
2018-Jun-19 08:59N 40°38' W 074°08'0 0.0
2018-Jun-19 08:26N 40°38' W 074°08'0 0.0
2018-Jun-19 07:38N 40°38' W 074°08'0 0.0
2018-Jun-19 07:29N 40°38' W 074°08'0 0.0
2018-Jun-19 06:50N 40°38' W 074°08'0 0.0
2018-Jun-19 06:26N 40°38' W 074°08'0 0.0
2018-Jun-19 05:56N 40°38' W 074°08'0 0.0
2018-Jun-19 05:26N 40°38' W 074°08'0 0.0
2018-Jun-19 04:37N 40°38' W 074°08'0 0.0
2018-Jun-19 04:30N 40°38' W 074°08'0 0.0
2018-Jun-19 04:00N 40°38' W 074°08'1 1.3
2018-Jun-19 03:30N 40°39' W 074°07'2 3.7
2018-Jun-19 03:00N 40°39' W 074°09'2 0.9
2018-Jun-19 00:27N 40°38' W 074°12'3 7.7
2018-Jun-19 00:00N 40°39' W 074°08'0 0.1
2018-Jun-18 23:29N 40°38' W 074°08'0 0.0
2018-Jun-18 22:53N 40°38' W 074°08'0 0.0
2018-Jun-18 22:29N 40°38' W 074°08'0 0.0
2018-Jun-18 21:59N 40°38' W 074°08'0 0.0
2018-Jun-18 21:29N 40°38' W 074°08'0 0.0
2018-Jun-18 20:56N 40°38' W 074°08'0 0.0
2018-Jun-18 20:29N 40°38' W 074°08'0 0.0
2018-Jun-18 19:56N 40°38' W 074°08'0 0.2
2018-Jun-18 19:30N 40°39' W 074°08'3 0.8
2018-Jun-18 15:18N 40°38' W 074°12'3 8.6
2018-Jun-18 15:00N 40°39' W 074°09'1 1.9
2018-Jun-18 14:29N 40°38' W 074°08'0 0.0
2018-Jun-18 13:59N 40°38' W 074°08'0 0.0
2018-Jun-18 13:29N 40°38' W 074°08'0 0.0
2018-Jun-18 13:00N 40°38' W 074°08'0 0.0
2018-Jun-18 12:24N 40°38' W 074°08'0 0.0
2018-Jun-18 12:00N 40°38' W 074°08'0 0.0
2018-Jun-18 11:18N 40°38' W 074°08'0 0.0
2018-Jun-18 11:00N 40°38' W 074°08'0 0.0
2018-Jun-18 10:30N 40°38' W 074°08'0 0.0
2018-Jun-18 10:00N 40°38' W 074°08'0 0.0
2018-Jun-18 09:29N 40°38' W 074°08'0 0.0
2018-Jun-18 09:00N 40°38' W 074°08'3 6.3
2018-Jun-18 08:30N 40°38' W 074°12'5 9.2
2018-Jun-18 08:00N 40°34' W 074°13'1 1.9
2018-Jun-18 07:30N 40°33' W 074°14'0 0.0
2018-Jun-18 07:00N 40°33' W 074°14'0 0.0
2018-Jun-18 06:30N 40°33' W 074°14'0 0.0
2018-Jun-18 05:19N 40°33' W 074°14'2 1.6
2018-Jun-18 04:01N 40°35' W 074°12'1 4.1
2018-Jun-18 03:49N 40°36' W 074°12'2 4.4
2018-Jun-18 03:26N 40°37' W 074°12'3 4.4
2018-Jun-18 02:48N 40°39' W 074°09'2 5.5
2018-Jun-18 02:29N 40°39' W 074°07'3 5.6
2018-Jun-18 02:00N 40°38' W 074°03'0 0.7
2018-Jun-18 01:30N 40°37' W 074°03'3 6.9
2018-Jun-18 01:00N 40°38' W 074°08'0 0.0
2018-Jun-17 22:17N 40°38' W 074°08'1 4.5
2018-Jun-17 22:00N 40°39' W 074°09'3 1.2
2018-Jun-17 19:50N 40°37' W 074°12'4 5.3
2018-Jun-17 19:04N 40°39' W 074°07'0 5.4
2018-Jun-17 18:59N 40°39' W 074°07'1 0.3
2018-Jun-17 16:04N 40°38' W 074°08'0 0.0
2018-Jun-17 10:46N 40°38' W 074°08'0 0.0
2018-Jun-17 10:28N 40°38' W 074°08'0 0.0
2018-Jun-17 09:58N 40°38' W 074°08'0 0.0
2018-Jun-17 09:25N 40°38' W 074°08'0 0.0
2018-Jun-17 08:58N 40°38' W 074°08'0 0.0
2018-Jun-17 08:25N 40°38' W 074°08'0 0.0
2018-Jun-17 07:58N 40°38' W 074°08'0 0.0
2018-Jun-17 07:28N 40°38' W 074°08'0 0.0
2018-Jun-17 06:58N 40°38' W 074°08'0 0.0
2018-Jun-17 06:22N 40°38' W 074°08'0 0.0
2018-Jun-17 05:58N 40°38' W 074°08'0 0.0
2018-Jun-17 05:28N 40°38' W 074°08'0 0.0
2018-Jun-17 04:49N 40°38' W 074°08'0 0.0
2018-Jun-17 04:22N 40°38' W 074°08'0 0.0
2018-Jun-17 03:58N 40°38' W 074°08'0 0.0
2018-Jun-17 03:28N 40°38' W 074°08'0 0.0
2018-Jun-17 03:00N 40°38' W 074°08'0 0.0
2018-Jun-17 02:30N 40°38' W 074°08'0 0.0
2018-Jun-17 02:00N 40°38' W 074°08'0 0.0
2018-Jun-17 01:30N 40°38' W 074°08'1 1.8
2018-Jun-17 01:00N 40°39' W 074°09'3 1.3
2018-Jun-16 23:00N 40°38' W 074°12'3 6.3
2018-Jun-16 22:28N 40°38' W 074°08'0 0.0
2018-Jun-16 21:55N 40°38' W 074°08'0 0.0
2018-Jun-16 21:28N 40°38' W 074°08'0 0.0
2018-Jun-16 20:52N 40°38' W 074°08'0 0.0
2018-Jun-16 20:25N 40°38' W 074°08'0 0.0
2018-Jun-16 19:58N 40°38' W 074°08'0 0.0
2018-Jun-16 19:22N 40°38' W 074°08'0 0.0
2018-Jun-16 18:58N 40°38' W 074°08'0 0.0
2018-Jun-16 18:25N 40°38' W 074°08'0 0.0
2018-Jun-16 17:49N 40°38' W 074°08'0 0.0
2018-Jun-16 17:19N 40°38' W 074°08'0 0.0
2018-Jun-16 16:55N 40°38' W 074°08'0 0.0
2018-Jun-16 16:19N 40°38' W 074°08'0 0.0
2018-Jun-16 15:55N 40°38' W 074°08'0 0.0
2018-Jun-16 15:30N 40°38' W 074°08'3 5.6
2018-Jun-16 15:00N 40°38' W 074°11'2 1.8
2018-Jun-16 13:49N 40°36' W 074°12'2 6.6
2018-Jun-16 13:30N 40°38' W 074°12'3 4.7
2018-Jun-16 12:54N 40°38' W 074°08'0 0.0
2018-Jun-16 11:06N 40°38' W 074°08'0 0.0
2018-Jun-16 11:00N 40°38' W 074°08'0 0.0
2018-Jun-16 10:24N 40°38' W 074°08'0 0.0
2018-Jun-16 10:00N 40°38' W 074°08'0 0.0
2018-Jun-16 09:30N 40°38' W 074°08'0 0.0
2018-Jun-16 08:55N 40°38' W 074°08'1 2.3
2018-Jun-16 08:30N 40°39' W 074°07'0 0.0
2018-Jun-16 07:59N 40°39' W 074°07'1 1.8
2018-Jun-16 07:29N 40°38' W 074°08'0 0.0
2018-Jun-16 05:50N 40°38' W 074°08'0 0.0
2018-Jun-16 05:29N 40°38' W 074°08'0 0.0
2018-Jun-16 04:59N 40°38' W 074°08'0 0.0
2018-Jun-16 04:17N 40°38' W 074°08'0 0.0
2018-Jun-16 03:53N 40°38' W 074°08'0 0.0
2018-Jun-16 03:29N 40°38' W 074°08'0 0.0
2018-Jun-16 01:29N 40°38' W 074°08'0 0.0
2018-Jun-16 00:59N 40°38' W 074°08'0 0.0
2018-Jun-16 00:23N 40°38' W 074°08'0 0.0
2018-Jun-15 23:53N 40°38' W 074°08'0 0.0
2018-Jun-15 23:30N 40°38' W 074°08'0 0.0
2018-Jun-15 23:00N 40°38' W 074°08'0 0.0
2018-Jun-15 22:30N 40°38' W 074°08'0 0.0
2018-Jun-15 22:00N 40°38' W 074°08'0 0.0
2018-Jun-15 21:30N 40°38' W 074°08'4 1.0
2018-Jun-15 17:15N 40°36' W 074°12'310.3
2018-Jun-15 17:00N 40°38' W 074°12'3 6.2
2018-Jun-15 16:30N 40°38' W 074°08'0 0.0
2018-Jun-15 15:57N 40°38' W 074°08'0 0.0
2018-Jun-15 15:30N 40°38' W 074°08'0 0.0
2018-Jun-15 15:00N 40°38' W 074°08'0 0.0
2018-Jun-15 14:24N 40°38' W 074°08'0 0.0
2018-Jun-15 14:00N 40°38' W 074°08'0 0.0
2018-Jun-15 13:30N 40°38' W 074°08'0 0.0
2018-Jun-15 12:57N 40°38' W 074°08'0 0.1
2018-Jun-15 12:29N 40°38' W 074°08'0 0.0
2018-Jun-15 11:53N 40°38' W 074°08'0 0.1
2018-Jun-15 11:30N 40°38' W 074°08'2 3.0
2018-Jun-15 11:00N 40°39' W 074°06'2 3.1
2018-Jun-15 10:30N 40°40' W 074°05'0 0.1
2018-Jun-15 10:00N 40°40' W 074°05'2 4.4
2018-Jun-15 09:30N 40°38' W 074°03'1 2.0
2018-Jun-15 09:01N 40°37' W 074°03'4 7.0
2018-Jun-15 08:30N 40°38' W 074°08'0 0.0
2018-Jun-15 07:58N 40°38' W 074°08'2 4.8
2018-Jun-15 07:30N 40°41' W 074°08'1 1.9
2018-Jun-15 06:51N 40°42' W 074°09'0 0.2
2018-Jun-15 06:25N 40°42' W 074°09'1 1.5
2018-Jun-15 06:00N 40°41' W 074°08'3 2.5
2018-Jun-15 04:49N 40°38' W 074°08'0 0.0
2018-Jun-15 04:25N 40°38' W 074°08'0 0.0
2018-Jun-14 23:13N 40°38' W 074°08'1 4.8
2018-Jun-14 23:00N 40°39' W 074°09'3 4.5
2018-Jun-14 22:25N 40°42' W 074°09'1 2.8
2018-Jun-14 22:00N 40°41' W 074°08'2 4.9
2018-Jun-14 21:30N 40°39' W 074°09'4 7.2
2018-Jun-14 21:00N 40°39' W 074°04'3 6.9
2018-Jun-14 20:30N 40°41' W 074°01'0 0.1
2018-Jun-14 20:00N 40°41' W 074°01'0 0.2
2018-Jun-14 19:30N 40°41' W 074°01'4 8.8
2018-Jun-14 19:00N 40°39' W 074°06'2 0.4
2018-Jun-14 15:14N 40°38' W 074°08'0 0.0
2018-Jun-14 11:05N 40°38' W 074°08'0 0.0
2018-Jun-14 10:50N 40°38' W 074°08'0 0.0
2018-Jun-14 10:29N 40°38' W 074°08'0 0.0
2018-Jun-14 09:14N 40°38' W 074°08'0 0.0
2018-Jun-14 06:26N 40°38' W 074°08'0 0.0
2018-Jun-14 05:59N 40°38' W 074°08'0 0.0
2018-Jun-14 04:17N 40°38' W 074°08'0 0.0
2018-Jun-14 03:47N 40°38' W 074°08'0 0.0
2018-Jun-14 03:23N 40°38' W 074°08'0 0.0
2018-Jun-14 02:53N 40°38' W 074°08'0 0.0
2018-Jun-14 02:29N 40°38' W 074°08'0 0.0
2018-Jun-14 00:59N 40°38' W 074°08'0 0.1
2018-Jun-14 00:31N 40°38' W 074°08'2 4.1
2018-Jun-14 00:00N 40°39' W 074°05'2 3.7
2018-Jun-13 23:26N 40°38' W 074°08'0 0.0
2018-Jun-13 22:47N 40°38' W 074°08'0 0.0
2018-Jun-13 22:29N 40°38' W 074°08'0 0.0
2018-Jun-13 21:59N 40°38' W 074°08'0 0.0
2018-Jun-13 21:29N 40°38' W 074°08'0 0.0
2018-Jun-13 20:56N 40°38' W 074°08'0 0.0
2018-Jun-13 20:29N 40°38' W 074°08'0 0.0
2018-Jun-13 19:59N 40°38' W 074°08'0 0.0
2018-Jun-13 19:29N 40°38' W 074°08'0 0.0
2018-Jun-13 18:59N 40°38' W 074°08'0 0.0
2018-Jun-13 18:29N 40°38' W 074°08'0 0.0
2018-Jun-13 18:00N 40°38' W 074°08'0 0.0
2018-Jun-13 17:30N 40°38' W 074°08'0 0.0
2018-Jun-13 17:00N 40°38' W 074°08'0 0.0
2018-Jun-13 16:30N 40°38' W 074°08'0 0.0
2018-Jun-13 16:00N 40°38' W 074°08'0 0.0
2018-Jun-13 15:30N 40°38' W 074°08'0 0.0
2018-Jun-13 15:00N 40°38' W 074°08'1 0.3
2018-Jun-13 11:44N 40°39' W 074°07'1 4.1
2018-Jun-13 11:30N 40°38' W 074°08'0 0.0
2018-Jun-13 11:01N 40°38' W 074°08'3 3.4
2018-Jun-13 10:15N 40°41' W 074°09'0 0.7
2018-Jun-13 10:00N 40°41' W 074°09'2 3.8
2018-Jun-13 09:24N 40°39' W 074°09'3 6.6
2018-Jun-13 09:01N 40°39' W 074°05'3 6.0
2018-Jun-13 08:30N 40°37' W 074°03'3 6.5
2018-Jun-13 08:01N 40°40' W 074°03'0 0.6
2018-Jun-13 07:30N 40°40' W 074°03'1 2.3
2018-Jun-13 07:00N 40°40' W 074°04'0 0.0
2018-Jun-13 06:30N 40°40' W 074°04'0 0.0
2018-Jun-13 06:00N 40°40' W 074°04'0 0.0
2018-Jun-13 05:27N 40°40' W 074°04'0 0.0
2018-Jun-13 05:00N 40°40' W 074°04'0 0.0
2018-Jun-13 04:27N 40°40' W 074°04'0 0.0
2018-Jun-13 04:01N 40°40' W 074°04'0 0.0
2018-Jun-13 03:30N 40°40' W 074°04'0 0.0
2018-Jun-13 03:00N 40°40' W 074°04'0 0.2
2018-Jun-13 02:31N 40°40' W 074°04'3 5.7
2018-Jun-13 02:00N 40°41' W 074°01'0 0.1
2018-Jun-13 01:30N 40°41' W 074°01'1 1.6
2018-Jun-13 01:00N 40°41' W 074°02'4 8.2
2018-Jun-13 00:30N 40°39' W 074°06'2 3.7
2018-Jun-13 00:00N 40°40' W 074°09'2 3.6
2018-Jun-12 23:30N 40°42' W 074°08'1 1.1
2018-Jun-12 23:00N 40°42' W 074°09'1 1.1
2018-Jun-12 22:30N 40°42' W 074°08'3 6.3
2018-Jun-12 21:59N 40°39' W 074°06'4 9.1
2018-Jun-12 21:30N 40°41' W 074°01'0 0.5
2018-Jun-12 21:01N 40°41' W 074°01'4 7.8
2018-Jun-12 20:30N 40°39' W 074°05'2 4.3
2018-Jun-12 20:00N 40°38' W 074°08'3 3.7
2018-Jun-12 19:05N 40°38' W 074°12'0 0.1
2018-Jun-12 18:37N 40°38' W 074°12'0 0.0
2018-Jun-12 18:30N 40°38' W 074°12'3 5.4
2018-Jun-12 18:00N 40°39' W 074°09'3 3.9
2018-Jun-12 17:16N 40°42' W 074°09'  
Track history (hours):
 
Tides and Currents Weather Stations Pressure Air Temp Water Temp Dewpoint Dewpoint Depression Visibility Wind Speed Wind Dir Waves Ship Positions

Joan Turecamo

Owner: Moran Towing Corporation, New Canaan, CT. More information available from US FCC via Universal Licensing System and Coast Guard Vessel Documentation Center.

Last reported at 2018-Jun-22 16:59 UTC. Time now 2018-Jun-22 17:09 UTC.
Position N 40°38' W 074°08'.

Length 34 m; draft 4.6 m.

Type: Tug. MMSI: 367073370.

Date/timePositionNaut miles runAvg speedWind from/ knotsBaromVisibWave heightAir tempDewpointWater temp
2018-Jun-22 16:59N 40°38' W 074°08'0 0.0
2018-Jun-22 16:29N 40°38' W 074°08'0 0.0
2018-Jun-22 15:59N 40°38' W 074°08'0 0.0
2018-Jun-22 15:23N 40°38' W 074°08'0 0.0
2018-Jun-22 14:59N 40°38' W 074°08'0 0.0
2018-Jun-22 14:29N 40°38' W 074°08'0 0.0
2018-Jun-22 13:59N 40°38' W 074°08'0 0.0
2018-Jun-22 13:26N 40°38' W 074°08'0 0.0
2018-Jun-22 12:56N 40°38' W 074°08'0 0.0
2018-Jun-22 12:29N 40°38' W 074°08'0 0.0
2018-Jun-22 11:59N 40°38' W 074°08'0 0.0
2018-Jun-22 11:17N 40°38' W 074°08'0 0.0
2018-Jun-22 10:56N 40°38' W 074°08'0 0.0
2018-Jun-22 10:26N 40°38' W 074°08'2 3.5
2018-Jun-22 10:00N 40°40' W 074°09'0 0.4
2018-Jun-22 09:30N 40°39' W 074°09'2 3.5
2018-Jun-22 09:00N 40°39' W 074°07'0 0.0
2018-Jun-22 08:30N 40°39' W 074°07'1 2.3
2018-Jun-22 08:00N 40°39' W 074°05'2 3.1
2018-Jun-22 07:31N 40°38' W 074°04'3 6.5
2018-Jun-22 07:00N 40°39' W 074°08'0 0.1
2018-Jun-22 06:28N 40°38' W 074°08'0 0.0
2018-Jun-22 05:57N 40°38' W 074°08'0 0.0
2018-Jun-22 05:27N 40°38' W 074°08'0 0.0
2018-Jun-22 04:57N 40°38' W 074°08'0 0.0
2018-Jun-22 04:27N 40°38' W 074°08'0 0.0
2018-Jun-22 03:57N 40°38' W 074°08'0 0.0
2018-Jun-22 03:15N 40°38' W 074°08'0 0.0
2018-Jun-22 03:00N 40°38' W 074°08'3 4.5
2018-Jun-22 02:22N 40°41' W 074°08'0 0.4
2018-Jun-22 02:01N 40°42' W 074°08'3 5.9
2018-Jun-22 01:31N 40°39' W 074°08'0 0.7
2018-Jun-22 01:00N 40°38' W 074°08'0 0.0
2018-Jun-22 00:30N 40°38' W 074°08'0 0.0
2018-Jun-22 00:00N 40°38' W 074°08'0 0.0
2018-Jun-21 23:24N 40°38' W 074°08'0 0.0
2018-Jun-21 23:00N 40°38' W 074°08'0 0.0
2018-Jun-21 22:30N 40°38' W 074°08'0 0.0
2018-Jun-21 22:00N 40°38' W 074°08'0 0.0
2018-Jun-21 21:30N 40°38' W 074°08'0 0.7
2018-Jun-21 21:00N 40°39' W 074°08'3 6.0
2018-Jun-21 20:27N 40°42' W 074°09'0 0.3
2018-Jun-21 19:59N 40°42' W 074°09'0 0.0
2018-Jun-21 19:29N 40°42' W 074°09'0 0.0
2018-Jun-21 18:59N 40°42' W 074°09'0 0.0
2018-Jun-21 18:23N 40°42' W 074°09'0 0.0
2018-Jun-21 17:59N 40°42' W 074°09'0 0.0
2018-Jun-21 17:26N 40°42' W 074°09'0 0.0
2018-Jun-21 16:59N 40°42' W 074°09'0 0.0
2018-Jun-21 16:29N 40°42' W 074°09'0 0.5
2018-Jun-21 15:47N 40°42' W 074°08'1 4.9
2018-Jun-21 15:30N 40°40' W 074°08'2 3.9
2018-Jun-21 15:00N 40°39' W 074°06'4 8.2
2018-Jun-21 14:31N 40°41' W 074°02'1 1.7
2018-Jun-21 14:00N 40°41' W 074°01'2 4.2
2018-Jun-21 13:31N 40°40' W 074°03'4 6.2
2018-Jun-21 12:53N 40°38' W 074°08'0 0.0
2018-Jun-21 12:17N 40°38' W 074°08'0 0.0
2018-Jun-21 11:56N 40°38' W 074°08'0 0.4
2018-Jun-21 11:28N 40°38' W 074°08'0 0.1
2018-Jun-21 11:00N 40°39' W 074°08'5 9.1
2018-Jun-21 10:30N 40°41' W 074°03'510.3
2018-Jun-21 10:00N 40°46' W 074°00'0 0.7
2018-Jun-21 09:31N 40°45' W 074°01'0 0.4
2018-Jun-21 09:00N 40°46' W 074°00'3 6.8
2018-Jun-21 08:30N 40°42' W 074°01'5 9.8
2018-Jun-21 08:00N 40°39' W 074°06'2 4.4
2018-Jun-21 07:30N 40°40' W 074°08'2 3.8
2018-Jun-21 07:00N 40°39' W 074°09'2 5.0
2018-Jun-21 06:30N 40°39' W 074°06'2 4.6
2018-Jun-21 06:00N 40°38' W 074°03'0 0.9
2018-Jun-21 05:30N 40°38' W 074°03'3 6.1
2018-Jun-21 05:00N 40°39' W 074°07'1 1.4
2018-Jun-21 04:28N 40°38' W 074°08'0 0.0
2018-Jun-21 03:55N 40°38' W 074°08'0 0.0
2018-Jun-21 03:28N 40°38' W 074°08'0 0.0
2018-Jun-21 02:55N 40°38' W 074°08'0 0.0
2018-Jun-21 02:28N 40°38' W 074°08'0 0.0
2018-Jun-21 01:58N 40°38' W 074°08'0 0.0
2018-Jun-21 01:28N 40°38' W 074°08'0 0.0
2018-Jun-21 00:49N 40°38' W 074°08'0 0.0
2018-Jun-21 00:28N 40°38' W 074°08'0 0.0
2018-Jun-20 23:49N 40°38' W 074°08'0 0.0
2018-Jun-20 23:28N 40°38' W 074°08'0 0.0
2018-Jun-20 22:58N 40°38' W 074°08'0 0.0
2018-Jun-20 22:28N 40°38' W 074°08'0 0.0
2018-Jun-20 21:49N 40°38' W 074°08'0 0.0
2018-Jun-20 21:28N 40°38' W 074°08'0 0.0
2018-Jun-20 20:58N 40°38' W 074°08'0 0.0
2018-Jun-20 20:25N 40°38' W 074°08'0 0.0
2018-Jun-20 19:56N 40°38' W 074°08'1 2.6
2018-Jun-20 19:31N 40°39' W 074°09'1 2.2
2018-Jun-20 18:55N 40°40' W 074°08'0 1.2
2018-Jun-20 18:30N 40°41' W 074°09'0 0.0
2018-Jun-20 18:01N 40°41' W 074°09'2 4.1
2018-Jun-20 17:29N 40°39' W 074°09'1 1.2
2018-Jun-20 16:50N 40°38' W 074°08'0 0.0
2018-Jun-20 16:27N 40°38' W 074°08'1 2.1
2018-Jun-20 16:00N 40°39' W 074°09'2 2.9
2018-Jun-20 15:13N 40°41' W 074°09'1 3.2
2018-Jun-20 15:00N 40°41' W 074°08'2 4.0
2018-Jun-20 14:31N 40°39' W 074°09'4 7.2
2018-Jun-20 14:01N 40°39' W 074°04'2 4.2
2018-Jun-20 13:30N 40°39' W 074°07'1 1.3
2018-Jun-20 13:00N 40°38' W 074°08'0 0.0
2018-Jun-20 12:30N 40°38' W 074°08'0 0.1
2018-Jun-20 12:00N 40°39' W 074°08'0 0.7
2018-Jun-20 11:30N 40°39' W 074°08'0 0.7
2018-Jun-20 10:59N 40°38' W 074°08'0 0.0
2018-Jun-20 10:29N 40°38' W 074°08'0 0.0
2018-Jun-20 09:59N 40°38' W 074°08'0 0.0
2018-Jun-20 09:11N 40°38' W 074°08'0 0.0
2018-Jun-20 08:59N 40°38' W 074°08'0 0.0
2018-Jun-20 08:29N 40°38' W 074°08'0 0.0
2018-Jun-20 07:59N 40°38' W 074°08'0 0.0
2018-Jun-20 07:29N 40°38' W 074°08'0 0.0
2018-Jun-20 06:47N 40°38' W 074°08'0 0.0
2018-Jun-20 06:29N 40°38' W 074°08'0 0.0
2018-Jun-20 05:59N 40°38' W 074°08'0 0.0
2018-Jun-20 05:29N 40°38' W 074°08'0 0.0
2018-Jun-20 04:53N 40°38' W 074°08'0 0.0
2018-Jun-20 04:23N 40°38' W 074°08'0 0.0
2018-Jun-20 03:59N 40°38' W 074°08'0 0.0
2018-Jun-20 03:29N 40°38' W 074°08'0 0.0
2018-Jun-20 02:59N 40°38' W 074°08'0 0.0
2018-Jun-20 02:29N 40°38' W 074°08'0 0.0
2018-Jun-20 01:53N 40°38' W 074°08'0 0.0
2018-Jun-20 01:30N 40°38' W 074°08'1 1.4
2018-Jun-20 01:00N 40°39' W 074°07'0 0.0
2018-Jun-20 00:30N 40°39' W 074°07'0 0.0
2018-Jun-20 00:00N 40°39' W 074°07'1 2.3
2018-Jun-19 23:31N 40°39' W 074°05'3 5.3
2018-Jun-19 23:00N 40°39' W 074°09'3 5.0
2018-Jun-19 22:26N 40°42' W 074°09'2 4.6
2018-Jun-19 22:00N 40°40' W 074°08'2 3.8
2018-Jun-19 21:29N 40°39' W 074°06'3 6.5
2018-Jun-19 21:01N 40°40' W 074°02'2 3.3
2018-Jun-19 20:30N 40°41' W 074°01'4 7.7
2018-Jun-19 20:01N 40°39' W 074°05'2 3.7
2018-Jun-19 19:23N 40°38' W 074°08'0 0.0
2018-Jun-19 18:53N 40°38' W 074°08'0 0.1
2018-Jun-19 18:26N 40°38' W 074°08'0 0.0
2018-Jun-19 17:53N 40°38' W 074°08'0 0.0
2018-Jun-19 17:29N 40°38' W 074°08'0 0.0
2018-Jun-19 16:59N 40°38' W 074°08'0 0.0
2018-Jun-19 16:29N 40°38' W 074°08'0 0.0
2018-Jun-19 15:59N 40°38' W 074°08'0 0.0
2018-Jun-19 15:29N 40°38' W 074°08'0 0.0
2018-Jun-19 14:59N 40°38' W 074°08'0 0.0
2018-Jun-19 14:29N 40°38' W 074°08'0 0.0
2018-Jun-19 13:59N 40°38' W 074°08'0 0.0
2018-Jun-19 13:26N 40°38' W 074°08'0 0.0
2018-Jun-19 12:59N 40°38' W 074°08'0 0.0
2018-Jun-19 12:29N 40°38' W 074°08'0 0.0
2018-Jun-19 11:59N 40°38' W 074°08'0 0.0
2018-Jun-19 11:29N 40°38' W 074°08'0 0.1
2018-Jun-19 10:59N 40°38' W 074°08'0 0.0
2018-Jun-19 10:29N 40°38' W 074°08'0 0.0
2018-Jun-19 09:59N 40°38' W 074°08'0 0.0
2018-Jun-19 08:59N 40°38' W 074°08'0 0.0
2018-Jun-19 08:26N 40°38' W 074°08'0 0.0
2018-Jun-19 07:38N 40°38' W 074°08'0 0.0
2018-Jun-19 07:29N 40°38' W 074°08'0 0.0
2018-Jun-19 06:50N 40°38' W 074°08'0 0.0
2018-Jun-19 06:26N 40°38' W 074°08'0 0.0
2018-Jun-19 05:56N 40°38' W 074°08'0 0.0
2018-Jun-19 05:26N 40°38' W 074°08'0 0.0
2018-Jun-19 04:37N 40°38' W 074°08'0 0.0
2018-Jun-19 04:30N 40°38' W 074°08'0 0.0
2018-Jun-19 04:00N 40°38' W 074°08'1 1.3
2018-Jun-19 03:30N 40°39' W 074°07'2 3.7
2018-Jun-19 03:00N 40°39' W 074°09'2 0.9
2018-Jun-19 00:27N 40°38' W 074°12'3 7.7
2018-Jun-19 00:00N 40°39' W 074°08'0 0.1
2018-Jun-18 23:29N 40°38' W 074°08'0 0.0
2018-Jun-18 22:53N 40°38' W 074°08'0 0.0
2018-Jun-18 22:29N 40°38' W 074°08'0 0.0
2018-Jun-18 21:59N 40°38' W 074°08'0 0.0
2018-Jun-18 21:29N 40°38' W 074°08'0 0.0
2018-Jun-18 20:56N 40°38' W 074°08'0 0.0
2018-Jun-18 20:29N 40°38' W 074°08'0 0.0
2018-Jun-18 19:56N 40°38' W 074°08'0 0.2
2018-Jun-18 19:30N 40°39' W 074°08'3 0.8
2018-Jun-18 15:18N 40°38' W 074°12'3 8.6
2018-Jun-18 15:00N 40°39' W 074°09'1 1.9
2018-Jun-18 14:29N 40°38' W 074°08'0 0.0
2018-Jun-18 13:59N 40°38' W 074°08'0 0.0
2018-Jun-18 13:29N 40°38' W 074°08'0 0.0
2018-Jun-18 13:00N 40°38' W 074°08'0 0.0
2018-Jun-18 12:24N 40°38' W 074°08'0 0.0
2018-Jun-18 12:00N 40°38' W 074°08'0 0.0
2018-Jun-18 11:18N 40°38' W 074°08'0 0.0
2018-Jun-18 11:00N 40°38' W 074°08'0 0.0
2018-Jun-18 10:30N 40°38' W 074°08'0 0.0
2018-Jun-18 10:00N 40°38' W 074°08'0 0.0
2018-Jun-18 09:29N 40°38' W 074°08'0 0.0
2018-Jun-18 09:00N 40°38' W 074°08'3 6.3
2018-Jun-18 08:30N 40°38' W 074°12'5 9.2
2018-Jun-18 08:00N 40°34' W 074°13'1 1.9
2018-Jun-18 07:30N 40°33' W 074°14'0 0.0
2018-Jun-18 07:00N 40°33' W 074°14'0 0.0
2018-Jun-18 06:30N 40°33' W 074°14'0 0.0
2018-Jun-18 05:19N 40°33' W 074°14'2 1.6
2018-Jun-18 04:01N 40°35' W 074°12'1 4.1
2018-Jun-18 03:49N 40°36' W 074°12'2 4.4
2018-Jun-18 03:26N 40°37' W 074°12'3 4.4
2018-Jun-18 02:48N 40°39' W 074°09'2 5.5
2018-Jun-18 02:29N 40°39' W 074°07'3 5.6
2018-Jun-18 02:00N 40°38' W 074°03'0 0.7
2018-Jun-18 01:30N 40°37' W 074°03'3 6.9
2018-Jun-18 01:00N 40°38' W 074°08'0 0.0
2018-Jun-17 22:17N 40°38' W 074°08'1 4.5
2018-Jun-17 22:00N 40°39' W 074°09'3 1.2
2018-Jun-17 19:50N 40°37' W 074°12'4 5.3
2018-Jun-17 19:04N 40°39' W 074°07'0 5.4
2018-Jun-17 18:59N 40°39' W 074°07'1 0.3
2018-Jun-17 16:04N 40°38' W 074°08'0 0.0
2018-Jun-17 10:46N 40°38' W 074°08'0 0.0
2018-Jun-17 10:28N 40°38' W 074°08'0 0.0
2018-Jun-17 09:58N 40°38' W 074°08'0 0.0
2018-Jun-17 09:25N 40°38' W 074°08'0 0.0
2018-Jun-17 08:58N 40°38' W 074°08'0 0.0
2018-Jun-17 08:25N 40°38' W 074°08'0 0.0
2018-Jun-17 07:58N 40°38' W 074°08'0 0.0
2018-Jun-17 07:28N 40°38' W 074°08'0 0.0
2018-Jun-17 06:58N 40°38' W 074°08'0 0.0
2018-Jun-17 06:22N 40°38' W 074°08'0 0.0
2018-Jun-17 05:58N 40°38' W 074°08'0 0.0
2018-Jun-17 05:28N 40°38' W 074°08'0 0.0
2018-Jun-17 04:49N 40°38' W 074°08'0 0.0
2018-Jun-17 04:22N 40°38' W 074°08'0 0.0
2018-Jun-17 03:58N 40°38' W 074°08'0 0.0
2018-Jun-17 03:28N 40°38' W 074°08'0 0.0
2018-Jun-17 03:00N 40°38' W 074°08'0 0.0
2018-Jun-17 02:30N 40°38' W 074°08'0 0.0
2018-Jun-17 02:00N 40°38' W 074°08'0 0.0
2018-Jun-17 01:30N 40°38' W 074°08'1 1.8
2018-Jun-17 01:00N 40°39' W 074°09'3 1.3
2018-Jun-16 23:00N 40°38' W 074°12'3 6.3
2018-Jun-16 22:28N 40°38' W 074°08'0 0.0
2018-Jun-16 21:55N 40°38' W 074°08'0 0.0
2018-Jun-16 21:28N 40°38' W 074°08'0 0.0
2018-Jun-16 20:52N 40°38' W 074°08'0 0.0
2018-Jun-16 20:25N 40°38' W 074°08'0 0.0
2018-Jun-16 19:58N 40°38' W 074°08'0 0.0
2018-Jun-16 19:22N 40°38' W 074°08'0 0.0
2018-Jun-16 18:58N 40°38' W 074°08'0 0.0
2018-Jun-16 18:25N 40°38' W 074°08'0 0.0
2018-Jun-16 17:49N 40°38' W 074°08'0 0.0
2018-Jun-16 17:19N 40°38' W 074°08'0 0.0
2018-Jun-16 16:55N 40°38' W 074°08'0 0.0
2018-Jun-16 16:19N 40°38' W 074°08'0 0.0
2018-Jun-16 15:55N 40°38' W 074°08'0 0.0
2018-Jun-16 15:30N 40°38' W 074°08'3 5.6
2018-Jun-16 15:00N 40°38' W 074°11'2 1.8
2018-Jun-16 13:49N 40°36' W 074°12'2 6.6
2018-Jun-16 13:30N 40°38' W 074°12'3 4.7
2018-Jun-16 12:54N 40°38' W 074°08'0 0.0
2018-Jun-16 11:06N 40°38' W 074°08'0 0.0
2018-Jun-16 11:00N 40°38' W 074°08'0 0.0
2018-Jun-16 10:24N 40°38' W 074°08'0 0.0
2018-Jun-16 10:00N 40°38' W 074°08'0 0.0
2018-Jun-16 09:30N 40°38' W 074°08'0 0.0
2018-Jun-16 08:55N 40°38' W 074°08'1 2.3
2018-Jun-16 08:30N 40°39' W 074°07'0 0.0
2018-Jun-16 07:59N 40°39' W 074°07'1 1.8
2018-Jun-16 07:29N 40°38' W 074°08'0 0.0
2018-Jun-16 05:50N 40°38' W 074°08'0 0.0
2018-Jun-16 05:29N 40°38' W 074°08'0 0.0
2018-Jun-16 04:59N 40°38' W 074°08'0 0.0
2018-Jun-16 04:17N 40°38' W 074°08'0 0.0
2018-Jun-16 03:53N 40°38' W 074°08'0 0.0
2018-Jun-16 03:29N 40°38' W 074°08'0 0.0
2018-Jun-16 01:29N 40°38' W 074°08'0 0.0
2018-Jun-16 00:59N 40°38' W 074°08'0 0.0
2018-Jun-16 00:23N 40°38' W 074°08'0 0.0
2018-Jun-15 23:53N 40°38' W 074°08'0 0.0
2018-Jun-15 23:30N 40°38' W 074°08'0 0.0
2018-Jun-15 23:00N 40°38' W 074°08'0 0.0
2018-Jun-15 22:30N 40°38' W 074°08'0 0.0
2018-Jun-15 22:00N 40°38' W 074°08'0 0.0
2018-Jun-15 21:30N 40°38' W 074°08'4 1.0
2018-Jun-15 17:15N 40°36' W 074°12'310.3
2018-Jun-15 17:00N 40°38' W 074°12'3 6.2
2018-Jun-15 16:30N 40°38' W 074°08'0 0.0
2018-Jun-15 15:57N 40°38' W 074°08'0 0.0
2018-Jun-15 15:30N 40°38' W 074°08'0 0.0
2018-Jun-15 15:00N 40°38' W 074°08'0 0.0
2018-Jun-15 14:24N 40°38' W 074°08'0 0.0
2018-Jun-15 14:00N 40°38' W 074°08'0 0.0
2018-Jun-15 13:30N 40°38' W 074°08'0 0.0
2018-Jun-15 12:57N 40°38' W 074°08'0 0.1
2018-Jun-15 12:29N 40°38' W 074°08'0 0.0
2018-Jun-15 11:53N 40°38' W 074°08'0 0.1
2018-Jun-15 11:30N 40°38' W 074°08'2 3.0
2018-Jun-15 11:00N 40°39' W 074°06'2 3.1
2018-Jun-15 10:30N 40°40' W 074°05'0 0.1
2018-Jun-15 10:00N 40°40' W 074°05'2 4.4
2018-Jun-15 09:30N 40°38' W 074°03'1 2.0
2018-Jun-15 09:01N 40°37' W 074°03'4 7.0
2018-Jun-15 08:30N 40°38' W 074°08'0 0.0
2018-Jun-15 07:58N 40°38' W 074°08'2 4.8
2018-Jun-15 07:30N 40°41' W 074°08'1 1.9
2018-Jun-15 06:51N 40°42' W 074°09'0 0.2
2018-Jun-15 06:25N 40°42' W 074°09'1 1.5
2018-Jun-15 06:00N 40°41' W 074°08'3 2.5
2018-Jun-15 04:49N 40°38' W 074°08'0 0.0
2018-Jun-15 04:25N 40°38' W 074°08'0 0.0
2018-Jun-14 23:13N 40°38' W 074°08'1 4.8
2018-Jun-14 23:00N 40°39' W 074°09'3 4.5
2018-Jun-14 22:25N 40°42' W 074°09'1 2.8
2018-Jun-14 22:00N 40°41' W 074°08'2 4.9
2018-Jun-14 21:30N 40°39' W 074°09'4 7.2
2018-Jun-14 21:00N 40°39' W 074°04'3 6.9
2018-Jun-14 20:30N 40°41' W 074°01'0 0.1
2018-Jun-14 20:00N 40°41' W 074°01'0 0.2
2018-Jun-14 19:30N 40°41' W 074°01'4 8.8
2018-Jun-14 19:00N 40°39' W 074°06'2 0.4
2018-Jun-14 15:14N 40°38' W 074°08'0 0.0
2018-Jun-14 11:05N 40°38' W 074°08'0 0.0
2018-Jun-14 10:50N 40°38' W 074°08'0 0.0
2018-Jun-14 10:29N 40°38' W 074°08'0 0.0
2018-Jun-14 09:14N 40°38' W 074°08'0 0.0
2018-Jun-14 06:26N 40°38' W 074°08'0 0.0
2018-Jun-14 05:59N 40°38' W 074°08'0 0.0
2018-Jun-14 04:17N 40°38' W 074°08'0 0.0
2018-Jun-14 03:47N 40°38' W 074°08'0 0.0
2018-Jun-14 03:23N 40°38' W 074°08'0 0.0
2018-Jun-14 02:53N 40°38' W 074°08'0 0.0
2018-Jun-14 02:29N 40°38' W 074°08'0 0.0
2018-Jun-14 00:59N 40°38' W 074°08'0 0.1
2018-Jun-14 00:31N 40°38' W 074°08'2 4.1
2018-Jun-14 00:00N 40°39' W 074°05'2 3.7
2018-Jun-13 23:26N 40°38' W 074°08'0 0.0
2018-Jun-13 22:47N 40°38' W 074°08'0 0.0
2018-Jun-13 22:29N 40°38' W 074°08'0 0.0
2018-Jun-13 21:59N 40°38' W 074°08'0 0.0
2018-Jun-13 21:29N 40°38' W 074°08'0 0.0
2018-Jun-13 20:56N 40°38' W 074°08'0 0.0
2018-Jun-13 20:29N 40°38' W 074°08'0 0.0
2018-Jun-13 19:59N 40°38' W 074°08'0 0.0
2018-Jun-13 19:29N 40°38' W 074°08'0 0.0
2018-Jun-13 18:59N 40°38' W 074°08'0 0.0
2018-Jun-13 18:29N 40°38' W 074°08'0 0.0
2018-Jun-13 18:00N 40°38' W 074°08'0 0.0
2018-Jun-13 17:30N 40°38' W 074°08'0 0.0
2018-Jun-13 17:00N 40°38' W 074°08'0 0.0
2018-Jun-13 16:30N 40°38' W 074°08'0 0.0
2018-Jun-13 16:00N 40°38' W 074°08'0 0.0
2018-Jun-13 15:30N 40°38' W 074°08'0 0.0
2018-Jun-13 15:00N 40°38' W 074°08'1 0.3
2018-Jun-13 11:44N 40°39' W 074°07'1 4.1
2018-Jun-13 11:30N 40°38' W 074°08'0 0.0
2018-Jun-13 11:01N 40°38' W 074°08'3 3.4
2018-Jun-13 10:15N 40°41' W 074°09'0 0.7
2018-Jun-13 10:00N 40°41' W 074°09'2 3.8
2018-Jun-13 09:24N 40°39' W 074°09'3 6.6
2018-Jun-13 09:01N 40°39' W 074°05'3 6.0
2018-Jun-13 08:30N 40°37' W 074°03'3 6.5
2018-Jun-13 08:01N 40°40' W 074°03'0 0.6
2018-Jun-13 07:30N 40°40' W 074°03'1 2.3
2018-Jun-13 07:00N 40°40' W 074°04'0 0.0
2018-Jun-13 06:30N 40°40' W 074°04'0 0.0
2018-Jun-13 06:00N 40°40' W 074°04'0 0.0
2018-Jun-13 05:27N 40°40' W 074°04'0 0.0
2018-Jun-13 05:00N 40°40' W 074°04'0 0.0
2018-Jun-13 04:27N 40°40' W 074°04'0 0.0
2018-Jun-13 04:01N 40°40' W 074°04'0 0.0
2018-Jun-13 03:30N 40°40' W 074°04'0 0.0
2018-Jun-13 03:00N 40°40' W 074°04'0 0.2
2018-Jun-13 02:31N 40°40' W 074°04'3 5.7
2018-Jun-13 02:00N 40°41' W 074°01'0 0.1
2018-Jun-13 01:30N 40°41' W 074°01'1 1.6
2018-Jun-13 01:00N 40°41' W 074°02'4 8.2
2018-Jun-13 00:30N 40°39' W 074°06'2 3.7
2018-Jun-13 00:00N 40°40' W 074°09'2 3.6
2018-Jun-12 23:30N 40°42' W 074°08'1 1.1
2018-Jun-12 23:00N 40°42' W 074°09'1 1.1
2018-Jun-12 22:30N 40°42' W 074°08'3 6.3
2018-Jun-12 21:59N 40°39' W 074°06'4 9.1
2018-Jun-12 21:30N 40°41' W 074°01'0 0.5
2018-Jun-12 21:01N 40°41' W 074°01'4 7.8
2018-Jun-12 20:30N 40°39' W 074°05'2 4.3
2018-Jun-12 20:00N 40°38' W 074°08'3 3.7
2018-Jun-12 19:05N 40°38' W 074°12'0 0.1
2018-Jun-12 18:37N 40°38' W 074°12'0 0.0
2018-Jun-12 18:30N 40°38' W 074°12'3 5.4
2018-Jun-12 18:00N 40°39' W 074°09'3 3.9
2018-Jun-12 17:16N 40°42' W 074°09'  

Dump ship's entire track history